Time;durP1;ratioP1;P1;durP2;ratioP2;P2;SDS_P1;SDS_P2;PMS_P1;PMS_P2;Temp;Humidity;BMP_temperature;BMP_pressure;BME280_temperature;BME280_humidity;BME280_pressure;Samples;Min_cycle;Max_cycle;Signal;HPM_P1;HPM_P2
2021/01/03 00:00:57;;;;;;;58.92;27.52;;;1.30;99.90;;;;;;5032317;28;20049;-74
2021/01/03 00:03:23;;;;;;;47.28;23.08;;;1.30;99.90;;;;;;5032289;28;20036;-74
2021/01/03 00:05:48;;;;;;;51.90;24.33;;;1.20;99.90;;;;;;5033482;28;20021;-76
2021/01/03 00:08:14;;;;;;;53.60;25.27;;;1.20;99.90;;;;;;5032171;28;20022;-75
2021/01/03 00:10:40;;;;;;;45.42;22.33;;;1.20;99.90;;;;;;5032169;28;20053;-75
2021/01/03 00:13:05;;;;;;;46.38;23.67;;;1.20;99.90;;;;;;5032030;28;20056;-74
2021/01/03 00:15:31;;;;;;;54.45;23.65;;;1.20;99.90;;;;;;5034554;28;20025;-75
2021/01/03 00:17:57;;;;;;;60.38;25.95;;;1.20;99.90;;;;;;5033225;28;20036;-74
2021/01/03 00:20:27;;;;;;;56.53;24.20;;;1.20;99.90;;;;;;5032085;28;20506;-75
2021/01/03 00:22:53;;;;;;;49.55;25.35;;;1.10;99.90;;;;;;5035634;28;20017;-75
2021/01/03 00:25:22;;;;;;;53.72;23.65;;;1.10;99.90;;;;;;5053141;28;20051;-74
2021/01/03 00:27:49;;;;;;;46.75;23.65;;;1.10;99.90;;;;;;5051778;28;20029;-74
2021/01/03 00:30:16;;;;;;;50.05;22.02;;;1.00;99.90;;;;;;5051835;28;20027;-75
2021/01/03 00:32:43;;;;;;;41.95;20.35;;;1.00;99.90;;;;;;5052749;28;20170;-75
2021/01/03 00:35:13;;;;;;;45.83;20.98;;;1.00;99.90;;;;;;5051718;28;20086;-75
2021/01/03 00:37:38;;;;;;;45.65;21.70;;;1.00;99.90;;;;;;5052905;28;20017;-75
2021/01/03 00:40:07;;;;;;;46.03;23.42;;;1.00;99.90;;;;;;5051671;28;20021;-75
2021/01/03 00:42:33;;;;;;;44.22;22.85;;;0.90;99.90;;;;;;5052852;28;20033;-75
2021/01/03 00:44:58;;;;;;;46.50;21.85;;;0.90;99.90;;;;;;5052780;28;20052;-74
2021/01/03 00:47:24;;;;;;;45.08;23.40;;;0.90;99.90;;;;;;5031622;28;20026;-75
2021/01/03 00:49:50;;;;;;;43.35;21.70;;;0.90;99.90;;;;;;5031617;28;20026;-75
2021/01/03 00:52:15;;;;;;;43.90;22.50;;;0.90;99.90;;;;;;5032669;28;20056;-74
2021/01/03 00:54:41;;;;;;;43.90;20.08;;;1.00;99.90;;;;;;5031610;28;20457;-75
2021/01/03 00:57:06;;;;;;;40.03;19.35;;;0.90;99.90;;;;;;5031483;28;20055;-74
2021/01/03 00:59:32;;;;;;;39.33;18.77;;;1.00;99.90;;;;;;5032822;28;20032;-75
2021/01/03 01:01:58;;;;;;;39.53;18.73;;;1.00;99.90;;;;;;5032769;28;20104;-74
2021/01/03 01:04:23;;;;;;;35.88;17.25;;;1.00;99.90;;;;;;5031596;28;20018;-74
2021/01/03 01:06:49;;;;;;;34.90;15.35;;;1.00;99.90;;;;;;5031447;28;20108;-74
2021/01/03 01:09:15;;;;;;;36.33;17.70;;;1.10;99.90;;;;;;5032608;28;20477;-74
2021/01/03 01:11:42;;;;;;;37.83;17.13;;;1.10;99.90;;;;;;5031369;28;20022;-75
2021/01/03 01:14:09;;;;;;;34.40;18.50;;;1.10;99.90;;;;;;5031148;28;20060;-74
2021/01/03 01:16:36;;;;;;;39.22;19.30;;;1.10;99.90;;;;;;5047434;28;20482;-75
2021/01/03 01:19:02;;;;;;;39.28;19.40;;;1.10;99.90;;;;;;5051079;28;20048;-74
2021/01/03 01:21:28;;;;;;;38.15;16.75;;;1.10;99.90;;;;;;5051273;28;20021;-75
2021/01/03 01:23:53;;;;;;;36.55;18.08;;;1.10;99.90;;;;;;5051160;28;20074;-74
2021/01/03 01:26:19;;;;;;;34.95;17.30;;;1.10;99.90;;;;;;5051232;28;20117;-75
2021/01/03 01:28:45;;;;;;;36.55;19.42;;;1.10;99.90;;;;;;5051121;28;20056;-74
2021/01/03 01:31:11;;;;;;;37.83;19.48;;;1.00;99.90;;;;;;5051107;28;20017;-75
2021/01/03 01:33:37;;;;;;;39.92;19.38;;;1.00;99.90;;;;;;5052319;28;20041;-74
2021/01/03 01:36:03;;;;;;;38.78;19.50;;;1.00;99.90;;;;;;5048714;28;20066;-75
2021/01/03 01:38:29;;;;;;;37.17;18.23;;;0.90;99.90;;;;;;5032456;28;20025;-75
2021/01/03 01:40:57;;;;;;;40.70;19.15;;;0.90;99.90;;;;;;5031168;28;20026;-75
2021/01/03 01:43:23;;;;;;;36.75;18.55;;;0.90;99.90;;;;;;5031127;28;20021;-74
2021/01/03 01:45:48;;;;;;;39.42;20.13;;;0.90;99.90;;;;;;5032421;28;20025;-75
2021/01/03 01:48:19;;;;;;;38.63;21.48;;;0.90;99.90;;;;;;5032342;28;20487;-74
2021/01/03 01:50:53;;;;;;;38.42;20.30;;;0.90;99.90;;;;;;5032397;28;20022;-74
2021/01/03 01:53:28;;;;;;;45.10;19.77;;;1.00;99.90;;;;;;5032259;28;20406;-75
2021/01/03 01:56:14;;;;;;;37.35;18.17;;;1.00;99.90;;;;;;5032379;28;20028;-74
2021/01/03 01:58:55;;;;;;;32.63;17.92;;;1.10;99.90;;;;;;5032311;28;20471;-74
2021/01/03 02:01:28;;;;;;;32.92;18.08;;;1.10;99.90;;;;;;5034184;28;20025;-75
2021/01/03 02:04:20;;;;;;;42.25;19.70;;;1.10;99.90;;;;;;5034552;28;20025;-75
2021/01/03 02:06:56;;;;;;;41.53;19.25;;;1.10;99.90;;;;;;5036842;28;20034;-74
2021/01/03 02:09:36;;;;;;;34.58;18.45;;;1.00;99.90;;;;;;5033769;28;20087;-75
2021/01/03 02:12:07;;;;;;;40.22;18.23;;;1.00;99.90;;;;;;5035365;28;20027;-74
2021/01/03 02:14:33;;;;;;;32.80;16.15;;;1.00;99.90;;;;;;5035575;28;20038;-75
2021/01/03 02:16:59;;;;;;;27.60;15.05;;;1.00;99.90;;;;;;5035590;28;20501;-74
2021/01/03 02:19:25;;;;;;;29.92;15.18;;;1.00;99.90;;;;;;5035587;28;20387;-75
2021/01/03 02:22:01;;;;;;;30.17;14.90;;;1.10;99.90;;;;;;5033330;28;20064;-75
2021/01/03 02:24:44;;;;;;;33.65;17.70;;;1.10;99.90;;;;;;5034274;28;20030;-74
2021/01/03 02:27:37;;;;;;;35.67;17.60;;;1.10;99.90;;;;;;5034121;28;20025;-74
2021/01/03 02:30:04;;;;;;;31.20;16.38;;;1.00;99.90;;;;;;5035423;28;20052;-75
2021/01/03 02:32:31;;;;;;;35.78;16.67;;;1.00;99.90;;;;;;5034020;28;20442;-74
2021/01/03 02:34:57;;;;;;;37.63;16.73;;;1.00;99.90;;;;;;5035291;28;20487;-74
2021/01/03 02:37:30;;;;;;;34.25;16.58;;;1.00;99.90;;;;;;5050095;28;20021;-74
2021/01/03 02:40:19;;;;;;;35.42;17.58;;;1.00;99.90;;;;;;5055084;28;20025;-75
2021/01/03 02:42:45;;;;;;;31.48;16.42;;;1.10;99.90;;;;;;5053727;28;20104;-75
2021/01/03 02:45:13;;;;;;;37.60;18.23;;;1.10;99.90;;;;;;5054972;28;20100;-75
2021/01/03 02:47:39;;;;;;;35.67;16.83;;;1.10;99.90;;;;;;5054800;28;20104;-74
2021/01/03 02:50:10;;;;;;;36.40;18.17;;;1.10;99.90;;;;;;5053568;28;20116;-74
2021/01/03 02:52:39;;;;;;;32.58;18.23;;;1.10;99.90;;;;;;5053207;28;20490;-74
2021/01/03 02:55:07;;;;;;;43.45;20.20;;;1.10;99.90;;;;;;5053611;28;20103;-74
2021/01/03 02:57:33;;;;;;;39.70;19.83;;;1.10;99.90;;;;;;5053195;28;20029;-75
2021/01/03 02:59:59;;;;;;;33.80;19.15;;;1.00;99.90;;;;;;5054729;28;20497;-75
2021/01/03 03:02:24;;;;;;;39.22;21.52;;;1.00;99.90;;;;;;5053450;28;20025;-74
2021/01/03 03:04:50;;;;;;;38.22;20.42;;;0.90;99.90;;;;;;5054592;28;20025;-76
2021/01/03 03:07:16;;;;;;;40.88;20.42;;;0.90;99.90;;;;;;5041413;28;20040;-74
2021/01/03 03:09:41;;;;;;;41.28;20.40;;;0.90;99.90;;;;;;5034575;28;20514;-75
2021/01/03 03:12:08;;;;;;;37.25;18.92;;;0.80;99.90;;;;;;5034324;28;20040;-75
2021/01/03 03:14:33;;;;;;;45.08;22.52;;;0.80;99.90;;;;;;5034542;28;20021;-75
2021/01/03 03:17:01;;;;;;;45.50;20.27;;;0.80;99.90;;;;;;5036994;28;20087;-74
2021/01/03 03:19:26;;;;;;;39.05;19.95;;;0.80;99.90;;;;;;5016854;28;20018;-74
2021/01/03 03:21:53;;;;;;;37.45;17.48;;;0.80;99.90;;;;;;5033015;28;20483;-75
2021/01/03 03:24:19;;;;;;;40.55;16.77;;;0.80;99.90;;;;;;5034518;28;20082;-74
2021/01/03 03:26:56;;;;;;;39.15;18.50;;;0.80;99.90;;;;;;5034292;28;20021;-74
2021/01/03 03:29:23;;;;;;;40.42;19.15;;;0.70;99.90;;;;;;5034260;28;20033;-75
2021/01/03 03:31:48;;;;;;;39.35;20.98;;;0.80;99.90;;;;;;5034097;28;20479;-74
2021/01/03 03:34:15;;;;;;;36.50;16.77;;;0.80;99.90;;;;;;5032813;28;20025;-75
2021/01/03 03:36:41;;;;;;;30.95;15.43;;;0.80;99.90;;;;;;5036733;28;20033;-75
2021/01/03 03:39:06;;;;;;;34.63;17.15;;;0.80;99.90;;;;;;5053958;28;20540;-74
2021/01/03 03:41:32;;;;;;;34.17;14.93;;;0.80;99.90;;;;;;5053882;28;20053;-75
2021/01/03 03:43:58;;;;;;;23.75;13.48;;;0.80;99.90;;;;;;5052602;28;20382;-74
2021/01/03 03:46:23;;;;;;;21.65;11.50;;;0.80;99.90;;;;;;5059789;28;20498;-75
2021/01/03 03:48:49;;;;;;;27.15;13.68;;;0.80;99.90;;;;;;5073672;28;20035;-74
2021/01/03 03:51:19;;;;;;;25.95;14.27;;;0.80;99.90;;;;;;5072466;28;20016;-75
2021/01/03 03:53:45;;;;;;;26.25;13.80;;;0.80;99.90;;;;;;5072313;28;20059;-74
2021/01/03 03:56:12;;;;;;;27.05;12.98;;;0.80;99.90;;;;;;5073619;28;20489;-76
2021/01/03 03:58:38;;;;;;;26.75;13.65;;;0.80;99.90;;;;;;5072171;28;20021;-74
2021/01/03 04:01:05;;;;;;;27.70;13.80;;;0.80;99.90;;;;;;5072241;28;20355;-74
2021/01/03 04:03:31;;;;;;;25.63;14.88;;;0.80;99.90;;;;;;5073437;28;20043;-74
2021/01/03 04:05:57;;;;;;;23.98;12.98;;;0.80;99.90;;;;;;5073036;28;20029;-75
2021/01/03 04:08:23;;;;;;;32.40;12.98;;;0.80;99.90;;;;;;5055033;28;20035;-76
2021/01/03 04:10:49;;;;;;;23.90;13.57;;;0.80;99.90;;;;;;5052141;28;20478;-74
2021/01/03 04:13:15;;;;;;;33.05;16.15;;;0.80;99.90;;;;;;5053280;28;20398;-75
2021/01/03 04:15:40;;;;;;;27.67;13.65;;;0.70;99.90;;;;;;5053299;28;20493;-75
2021/01/03 04:18:07;;;;;;;30.55;15.77;;;0.70;99.90;;;;;;5053243;28;20074;-75
2021/01/03 04:20:33;;;;;;;27.30;16.55;;;0.70;99.90;;;;;;5050382;28;20009;-75
2021/01/03 04:22:59;;;;;;;37.67;17.88;;;0.60;99.90;;;;;;5032859;28;20022;-74
2021/01/03 04:25:25;;;;;;;30.75;16.42;;;0.60;99.90;;;;;;5043005;28;20463;-75
2021/01/03 04:27:54;;;;;;;34.05;17.92;;;0.50;99.90;;;;;;5051776;28;20025;-74
2021/01/03 04:30:22;;;;;;;32.17;16.30;;;0.50;99.90;;;;;;5051787;28;20501;-75
2021/01/03 04:32:49;;;;;;;33.88;18.00;;;0.40;99.90;;;;;;5051485;28;20498;-74
2021/01/03 04:35:15;;;;;;;32.67;17.75;;;0.30;99.90;;;;;;5050938;28;20029;-74
2021/01/03 04:37:41;;;;;;;34.55;19.52;;;0.30;99.90;;;;;;5050961;28;20021;-74
2021/01/03 04:40:15;;;;;;;42.20;19.35;;;0.30;99.90;;;;;;5052947;28;20505;-75
2021/01/03 04:42:42;;;;;;;37.92;21.67;;;0.30;99.90;;;;;;5051609;28;20025;-74
2021/01/03 04:45:31;;;;;;;40.58;19.40;;;0.30;99.90;;;;;;5052924;28;20505;-75
2021/01/03 04:48:05;;;;;;;40.30;18.75;;;0.30;99.90;;;;;;5052843;28;20048;-75
2021/01/03 04:50:49;;;;;;;38.85;18.67;;;0.30;99.90;;;;;;5052642;28;20017;-75
2021/01/03 04:53:57;;;;;;;34.83;17.50;;;0.30;99.90;;;;;;5052499;28;20041;-75
2021/01/03 04:56:46;;;;;;;36.70;17.13;;;0.30;99.90;;;;;;5051033;28;20033;-75
2021/01/03 04:59:49;;;;;;;33.97;17.30;;;0.30;99.90;;;;;;5051360;28;20496;-74
2021/01/03 05:02:38;;;;;;;31.05;16.65;;;0.30;99.90;;;;;;5052540;28;20037;-75
2021/01/03 05:05:37;;;;;;;28.63;15.20;;;0.20;99.90;;;;;;5052599;28;20049;-74
2021/01/03 05:08:37;;;;;;;36.38;16.67;;;0.20;99.90;;;;;;5039246;28;20068;-74
2021/01/03 05:11:11;;;;;;;34.85;18.80;;;0.20;99.90;;;;;;5031645;28;20042;-75
2021/01/03 05:13:45;;;;;;;35.15;18.30;;;0.20;99.90;;;;;;5032595;28;20075;-75
2021/01/03 05:16:15;;;;;;;39.15;20.13;;;0.20;99.90;;;;;;5031427;28;20129;-74
2021/01/03 05:18:40;;;;;;;38.63;19.33;;;0.20;99.90;;;;;;5032501;28;20037;-74
2021/01/03 05:21:06;;;;;;;35.40;18.17;;;0.10;99.90;;;;;;5032016;28;20521;-74
2021/01/03 05:23:37;;;;;;;37.38;17.95;;;0.10;99.90;;;;;;5031054;28;20087;-75
2021/01/03 05:26:24;;;;;;;44.50;22.80;;;0.10;99.90;;;;;;5032598;28;20021;-74
2021/01/03 05:28:55;;;;;;;45.95;23.23;;;0.10;99.90;;;;;;5032578;28;20425;-74
2021/01/03 05:31:22;;;;;;;43.08;21.63;;;0.20;99.90;;;;;;5032644;28;20027;-74
2021/01/03 05:33:52;;;;;;;43.10;19.70;;;0.10;99.90;;;;;;5032381;28;20052;-75
2021/01/03 05:36:33;;;;;;;31.60;17.40;;;0.10;99.90;;;;;;5048068;28;20482;-74
2021/01/03 05:39:03;;;;;;;35.63;18.63;;;0.10;99.90;;;;;;5054969;28;20037;-74
2021/01/03 05:42:09;;;;;;;42.10;20.70;;;0.10;99.90;;;;;;5056255;28;20029;-74
2021/01/03 05:44:39;;;;;;;33.55;19.23;;;0.10;99.90;;;;;;5055945;28;20363;-74
2021/01/03 05:47:23;;;;;;;37.67;19.77;;;0.10;99.90;;;;;;5056077;28;20017;-75
2021/01/03 05:50:14;;;;;;;35.15;17.45;;;0.10;99.90;;;;;;5054754;28;20478;-74
2021/01/03 05:52:55;;;;;;;36.15;17.38;;;0.10;99.90;;;;;;5054527;28;20041;-74
2021/01/03 05:55:27;;;;;;;41.47;22.08;;;0.10;99.90;;;;;;5056014;28;20032;-74
2021/01/03 05:58:30;;;;;;;61.10;31.02;;;0.10;99.90;;;;;;5054096;28;20075;-75
2021/01/03 06:01:12;;;;;;;42.80;22.53;;;0.20;99.90;;;;;;5054726;28;20063;-74
2021/01/03 06:03:38;;;;;;;48.65;26.02;;;0.20;99.90;;;;;;5054546;28;20021;-74
2021/01/03 06:06:19;;;;;;;41.20;22.92;;;0.20;99.90;;;;;;5044028;28;20079;-75
2021/01/03 06:08:47;;;;;;;39.00;21.23;;;0.20;99.90;;;;;;5034305;28;20468;-74
2021/01/03 06:11:14;;;;;;;42.00;21.75;;;0.20;99.90;;;;;;5034386;28;20487;-74
2021/01/03 06:13:57;;;;;;;32.53;19.23;;;0.20;99.90;;;;;;5034001;28;20562;-75
2021/01/03 06:16:31;;;;;;;34.60;19.42;;;0.30;99.90;;;;;;5034564;28;20052;-74
2021/01/03 06:19:17;;;;;;;38.97;19.45;;;0.20;99.90;;;;;;5035444;28;20013;-75
2021/01/03 06:21:44;;;;;;;37.92;19.52;;;0.30;99.90;;;;;;5034197;28;20024;-76
2021/01/03 06:24:27;;;;;;;41.35;21.30;;;0.30;99.90;;;;;;5035241;28;20017;-74
2021/01/03 06:26:57;;;;;;;35.75;20.58;;;0.30;99.90;;;;;;5037358;28;20490;-74
2021/01/03 06:29:43;;;;;;;35.42;20.27;;;0.30;99.90;;;;;;5034074;28;20036;-74
2021/01/03 06:32:49;;;;;;;39.65;18.63;;;0.30;99.90;;;;;;5035153;28;20029;-74
2021/01/03 06:35:24;;;;;;;39.85;20.05;;;0.20;99.90;;;;;;5035205;28;20045;-74
2021/01/03 06:38:00;;;;;;;38.22;20.45;;;0.20;99.90;;;;;;5033574;28;20032;-74
2021/01/03 06:40:38;;;;;;;43.13;20.58;;;0.20;99.90;;;;;;5033793;28;20026;-75
2021/01/03 06:43:41;;;;;;;37.70;20.95;;;0.10;99.90;;;;;;5035033;28;20029;-75
2021/01/03 06:46:43;;;;;;;34.53;20.23;;;0.20;99.90;;;;;;5034775;28;20471;-74
2021/01/03 06:49:21;;;;;;;41.00;19.38;;;0.20;99.90;;;;;;5034918;28;20103;-74
2021/01/03 06:52:16;;;;;;;43.88;19.13;;;0.10;99.90;;;;;;5033603;28;20065;-74
2021/01/03 06:54:44;;;;;;;45.22;19.77;;;0.10;99.90;;;;;;5034487;28;20041;-74
2021/01/03 06:57:55;;;;;;;40.17;19.90;;;0.10;99.90;;;;;;5043240;28;20147;-74
2021/01/03 07:00:23;;;;;;;32.80;17.95;;;0.00;99.90;;;;;;5051554;28;20124;-74
2021/01/03 07:03:13;;;;;;;38.35;19.40;;;0.10;99.90;;;;;;5054504;28;20060;-74
2021/01/03 07:05:51;;;;;;;33.88;19.65;;;0.00;99.90;;;;;;5049813;28;20021;-74
2021/01/03 07:08:19;;;;;;;31.50;18.05;;;0.00;99.90;;;;;;5054579;28;20055;-74
2021/01/03 07:10:45;;;;;;;41.53;19.60;;;0.00;99.90;;;;;;5052337;28;20083;-74
2021/01/03 07:13:30;;;;;;;38.55;18.50;;;0.00;99.90;;;;;;5053958;28;20044;-74
2021/01/03 07:15:59;;;;;;;33.50;18.92;;;0.00;99.90;;;;;;5049076;28;20082;-74
2021/01/03 07:18:40;;;;;;;41.65;19.25;;;0.10;99.90;;;;;;5054113;28;20064;-74
2021/01/03 07:21:06;;;;;;;36.15;20.13;;;0.10;99.90;;;;;;5052885;28;20124;-74
2021/01/03 07:23:47;;;;;;;40.05;19.15;;;0.20;99.90;;;;;;5053085;28;20128;-74
2021/01/03 07:26:21;;;;;;;33.22;19.67;;;0.20;99.90;;;;;;5050584;28;20021;-74
2021/01/03 07:28:56;;;;;;;35.95;19.15;;;0.30;99.90;;;;;;5049461;28;20176;-74
2021/01/03 07:31:22;;;;;;;33.33;18.27;;;0.40;99.90;;;;;;5051957;28;20025;-74
2021/01/03 07:33:59;;;;;;;34.28;18.88;;;0.40;99.90;;;;;;5038446;28;20048;-74
2021/01/03 07:36:37;;;;;;;39.17;21.73;;;0.40;99.90;;;;;;5032613;28;20511;-74
2021/01/03 07:39:13;;;;;;;37.58;20.60;;;0.40;99.90;;;;;;5038689;28;20025;-74
2021/01/03 07:41:40;;;;;;;79.43;35.88;;;0.40;99.90;;;;;;5041059;28;20025;-74
2021/01/03 07:44:10;;;;;;;59.35;28.80;;;0.40;99.90;;;;;;5033706;28;20021;-74
2021/01/03 07:46:43;;;;;;;41.15;21.13;;;0.40;99.90;;;;;;5043827;28;20541;-75
2021/01/03 07:49:29;;;;;;;46.10;22.77;;;0.40;99.90;;;;;;5052330;28;20021;-74
2021/01/03 07:51:56;;;;;;;52.75;27.98;;;0.50;99.90;;;;;;5051771;28;20398;-74
2021/01/03 07:54:21;;;;;;;50.92;26.58;;;0.50;99.90;;;;;;5053206;28;20029;-75
2021/01/03 07:56:47;;;;;;;50.22;24.23;;;0.50;99.90;;;;;;5052859;28;20398;-75
2021/01/03 07:59:15;;;;;;;50.08;25.13;;;0.40;99.90;;;;;;5052699;28;20095;-75
2021/01/03 08:01:52;;;;;;;44.63;22.70;;;0.50;99.90;;;;;;5053008;28;20100;-75
2021/01/03 08:04:31;;;;;;;44.08;22.00;;;0.50;99.90;;;;;;5049826;28;20091;-76
2021/01/03 08:07:07;;;;;;;46.60;24.67;;;0.50;99.90;;;;;;5052084;28;20046;-75
2021/01/03 08:09:33;;;;;;;49.60;26.90;;;0.60;99.90;;;;;;5052015;28;20036;-75
2021/01/03 08:12:33;;;;;;;58.45;23.55;;;0.60;99.90;;;;;;5053148;28;20026;-75
2021/01/03 08:15:30;;;;;;;50.25;24.42;;;0.60;99.90;;;;;;5053388;28;20048;-75
2021/01/03 08:18:06;;;;;;;40.90;21.77;;;0.60;99.90;;;;;;5045772;28;20028;-76
2021/01/03 08:20:33;;;;;;;99.68;37.50;;;0.60;99.90;;;;;;5053226;28;20035;-75
2021/01/03 08:23:37;;;;;;;308.20;123.40;;;0.60;99.90;;;;;;5048864;28;20585;-75
2021/01/03 08:26:11;;;;;;;401.55;162.90;;;0.60;99.90;;;;;;5089950;28;20032;-75
2021/01/03 08:28:54;;;;;;;227.88;94.82;;;0.70;99.90;;;;;;5073052;28;20021;-75
2021/01/03 08:31:19;;;;;;;;;;;0.70;99.90;;;;;;5064969;28;20029;-74
2021/01/03 08:33:49;;;;;;;131.02;53.92;;;0.70;99.90;;;;;;5046430;28;19917;-75
2021/01/03 08:36:16;;;;;;;77.95;32.72;;;0.70;99.90;;;;;;5051999;28;20055;-75
2021/01/03 08:38:41;;;;;;;47.28;22.52;;;0.70;99.90;;;;;;5049620;28;20020;-75
2021/01/03 08:41:13;;;;;;;42.53;21.20;;;0.80;99.90;;;;;;5051955;28;20390;-75
2021/01/03 08:43:42;;;;;;;48.83;26.52;;;0.80;99.90;;;;;;5052245;28;20017;-75
2021/01/03 08:46:09;;;;;;;102.45;46.78;;;0.80;99.90;;;;;;5052405;28;20033;-75
2021/01/03 08:48:35;;;;;;;86.50;38.42;;;0.70;99.90;;;;;;5063034;28;20052;-74
2021/01/03 08:51:02;;;;;;;209.93;83.88;;;0.70;99.90;;;;;;5059190;28;20042;-76
2021/01/03 08:53:27;;;;;;;60.92;30.55;;;0.70;99.90;;;;;;5058879;28;20040;-74
2021/01/03 08:56:14;;;;;;;389.38;139.43;;;0.80;99.90;;;;;;5060133;28;20024;-75
2021/01/03 08:58:41;;;;;;;243.00;86.15;;;0.80;99.90;;;;;;5062564;28;20012;-75
2021/01/03 09:01:17;;;;;;;108.60;43.47;;;0.90;99.90;;;;;;5058964;28;20025;-75
2021/01/03 09:03:44;;;;;;;66.45;31.20;;;1.00;99.90;;;;;;5058373;28;20626;-74
2021/01/03 09:06:12;;;;;;;86.45;35.92;;;1.00;99.90;;;;;;5047483;28;20029;-74
2021/01/03 09:08:41;;;;;;;510.77;174.20;;;1.00;99.90;;;;;;5048339;28;20033;-75
2021/01/03 09:11:18;;;;;;;342.48;109.70;;;1.10;99.90;;;;;;5051372;28;20028;-74
2021/01/03 09:14:15;;;;;;;227.50;84.45;;;1.20;99.90;;;;;;5048026;28;20071;-75
2021/01/03 09:16:50;;;;;;;116.30;47.40;;;1.20;99.90;;;;;;5044386;28;20040;-74
2021/01/03 09:19:35;;;;;;;254.57;94.47;;;1.30;99.90;;;;;;5050109;28;20121;-76
2021/01/03 09:22:02;;;;;;;280.13;97.20;;;1.30;99.90;;;;;;5050108;28;20025;-74
2021/01/03 09:24:31;;;;;;;282.25;94.75;;;1.30;99.90;;;;;;5051374;28;20029;-75
2021/01/03 09:26:59;;;;;;;443.88;135.52;;;1.30;99.90;;;;;;5050436;28;20049;-75
2021/01/03 09:29:37;;;;;;;224.98;75.15;;;1.30;99.90;;;;;;5052521;28;20058;-75
2021/01/03 09:32:21;;;;;;;138.55;54.38;;;1.20;99.90;;;;;;5049901;28;20024;-75
2021/01/03 09:35:02;;;;;;;288.83;90.90;;;1.20;99.90;;;;;;5048096;28;20033;-74
2021/01/03 09:37:30;;;;;;;285.42;87.93;;;1.20;99.90;;;;;;5052028;28;20021;-75
2021/01/03 09:40:18;;;;;;;313.08;102.38;;;1.20;99.90;;;;;;5052825;28;20057;-74
2021/01/03 09:43:11;;;;;;;218.60;76.65;;;1.20;99.90;;;;;;5053444;28;20017;-74
2021/01/03 09:46:00;;;;;;;152.45;56.13;;;1.30;99.90;;;;;;5055451;28;20032;-74
2021/01/03 09:48:32;;;;;;;138.15;48.33;;;1.40;99.90;;;;;;5050760;28;20574;-75
2021/01/03 09:51:26;;;;;;;94.55;41.90;;;1.50;99.90;;;;;;5052149;28;20063;-75
2021/01/03 09:54:16;;;;;;;104.22;43.38;;;1.50;99.90;;;;;;5052643;28;20051;-74
2021/01/03 09:56:43;;;;;;;70.13;35.35;;;1.50;99.90;;;;;;5049590;28;20029;-75
2021/01/03 09:59:16;;;;;;;60.90;31.48;;;1.50;99.90;;;;;;5048308;28;20040;-74
2021/01/03 10:01:43;;;;;;;64.85;31.75;;;1.40;99.90;;;;;;5047767;28;20033;-75
2021/01/03 10:04:26;;;;;;;58.20;29.02;;;1.40;99.90;;;;;;5050229;28;20036;-74
2021/01/03 10:07:10;;;;;;;55.95;27.77;;;1.40;99.90;;;;;;5050317;28;20032;-74
2021/01/03 10:09:36;;;;;;;49.60;25.48;;;1.40;99.90;;;;;;5050712;28;20607;-75
2021/01/03 10:12:21;;;;;;;50.00;25.23;;;1.40;99.90;;;;;;5049926;28;20039;-74
2021/01/03 10:15:11;;;;;;;121.35;53.72;;;1.50;99.90;;;;;;5048963;28;20044;-75
2021/01/03 10:17:41;;;;;;;76.15;35.60;;;1.50;99.90;;;;;;5048805;28;20036;-74
2021/01/03 10:20:40;;;;;;;73.68;37.55;;;1.60;99.90;;;;;;5045509;28;20112;-74
2021/01/03 10:23:07;;;;;;;68.57;30.13;;;1.70;99.90;;;;;;5050608;28;20020;-74
2021/01/03 10:25:34;;;;;;;73.43;32.33;;;1.70;99.90;;;;;;5047105;28;20402;-74
2021/01/03 10:28:10;;;;;;;51.47;27.15;;;1.70;99.90;;;;;;5045362;28;20032;-74
2021/01/03 10:30:36;;;;;;;45.85;22.88;;;1.80;99.90;;;;;;5049140;28;20082;-74
2021/01/03 10:33:03;;;;;;;45.65;21.13;;;1.90;99.90;;;;;;5049864;28;20565;-75
2021/01/03 10:35:29;;;;;;;66.45;30.20;;;2.00;99.90;;;;;;5042900;28;20029;-75
2021/01/03 10:37:55;;;;;;;55.33;26.40;;;2.10;99.90;;;;;;5044368;28;20064;-75
2021/01/03 10:40:21;;;;;;;131.40;54.65;;;2.20;99.90;;;;;;5049238;28;20106;-75
2021/01/03 10:42:49;;;;;;;160.80;62.20;;;2.20;99.90;;;;;;5049148;28;20028;-74
2021/01/03 10:45:15;;;;;;;118.70;51.33;;;2.20;99.90;;;;;;5057010;28;20561;-74
2021/01/03 10:47:41;;;;;;;121.32;46.25;;;2.20;99.90;;;;;;5051566;28;20103;-74
2021/01/03 10:50:07;;;;;;;62.58;31.48;;;2.30;99.90;;;;;;5051516;28;20132;-75
2021/01/03 10:52:33;;;;;;;76.20;33.65;;;2.30;99.90;;;;;;5050983;28;20037;-75
2021/01/03 10:54:59;;;;;;;76.20;37.60;;;2.40;99.90;;;;;;5052288;28;20044;-75
2021/01/03 10:57:24;;;;;;;83.80;35.85;;;2.40;99.90;;;;;;5045594;28;20439;-74
2021/01/03 10:59:51;;;;;;;94.22;44.83;;;2.40;99.90;;;;;;5049271;28;20478;-74
2021/01/03 11:02:17;;;;;;;78.78;34.10;;;2.40;99.90;;;;;;5049300;28;20052;-74
2021/01/03 11:04:42;;;;;;;56.55;29.05;;;2.40;99.90;;;;;;5051200;28;20033;-75
2021/01/03 11:07:10;;;;;;;76.45;31.48;;;2.40;99.90;;;;;;5049537;28;20029;-74
2021/01/03 11:09:36;;;;;;;143.23;54.88;;;2.40;99.90;;;;;;5049118;28;20017;-74
2021/01/03 11:12:05;;;;;;;206.60;86.07;;;2.30;99.90;;;;;;5049928;28;20138;-74
2021/01/03 11:14:30;;;;;;;456.90;167.57;;;2.40;99.90;;;;;;5050478;28;20071;-74
2021/01/03 11:16:56;;;;;;;320.20;117.97;;;2.40;99.90;;;;;;5050547;28;20044;-74
2021/01/03 11:19:22;;;;;;;460.30;166.98;;;2.40;99.90;;;;;;5049730;28;20111;-75
2021/01/03 11:21:53;;;;;;;288.05;103.38;;;2.50;99.90;;;;;;5048614;28;20021;-74
2021/01/03 11:24:19;;;;;;;138.05;56.92;;;2.70;99.90;;;;;;5051058;28;20028;-74
2021/01/03 11:26:45;;;;;;;131.27;50.60;;;2.70;99.90;;;;;;5049856;28;20021;-73
2021/01/03 11:29:16;;;;;;;82.43;33.33;;;2.80;99.90;;;;;;5050521;28;20067;-73
2021/01/03 11:31:48;;;;;;;78.78;34.40;;;2.80;99.90;;;;;;5050814;28;20612;-74
2021/01/03 11:34:17;;;;;;;89.80;34.53;;;2.90;99.90;;;;;;5050825;28;20120;-75
2021/01/03 11:36:53;;;;;;;99.85;37.45;;;2.90;99.90;;;;;;5049106;28;20279;-73
2021/01/03 11:39:20;;;;;;;81.63;35.58;;;3.00;99.90;;;;;;5049301;28;20075;-73
2021/01/03 11:41:48;;;;;;;85.82;36.03;;;3.00;99.90;;;;;;5050799;28;20036;-73
2021/01/03 11:44:15;;;;;;;90.57;38.60;;;3.00;99.90;;;;;;5050816;28;20028;-73
2021/01/03 11:46:42;;;;;;;426.52;142.65;;;3.00;99.90;;;;;;5050160;28;20540;-73
2021/01/03 11:49:07;;;;;;;100.20;41.72;;;3.00;99.90;;;;;;5049507;28;20142;-72
2021/01/03 11:51:33;;;;;;;75.88;36.00;;;3.00;99.90;;;;;;5047611;28;20047;-73
2021/01/03 11:53:59;;;;;;;165.10;58.08;;;3.00;99.90;;;;;;5049587;28;20064;-72
2021/01/03 11:56:25;;;;;;;87.35;36.67;;;3.00;99.90;;;;;;5046882;28;20284;-73
2021/01/03 11:58:51;;;;;;;66.78;33.25;;;3.00;99.90;;;;;;5051211;28;20021;-73
2021/01/03 12:01:18;;;;;;;69.53;33.50;;;3.00;99.90;;;;;;5050002;28;20090;-73
2021/01/03 12:03:45;;;;;;;82.75;38.35;;;3.00;99.90;;;;;;5049558;28;20483;-73
2021/01/03 12:06:11;;;;;;;92.05;43.22;;;3.00;99.90;;;;;;5049211;28;20107;-73
2021/01/03 12:08:37;;;;;;;64.03;32.35;;;3.00;99.90;;;;;;5049839;28;20104;-73
2021/01/03 12:11:03;;;;;;;68.25;34.97;;;3.00;99.90;;;;;;5047806;28;20013;-74
2021/01/03 12:13:28;;;;;;;117.35;49.20;;;3.00;99.90;;;;;;5048047;28;20033;-73
2021/01/03 12:15:54;;;;;;;63.85;28.42;;;3.00;99.90;;;;;;5051964;28;20472;-74
2021/01/03 12:18:19;;;;;;;54.80;23.98;;;3.10;99.90;;;;;;5050752;28;20116;-73
2021/01/03 12:20:45;;;;;;;58.75;26.20;;;3.10;99.90;;;;;;5050058;28;20039;-75
2021/01/03 12:23:11;;;;;;;57.20;25.00;;;3.10;99.90;;;;;;5050466;28;20024;-73
2021/01/03 12:25:36;;;;;;;49.05;24.17;;;3.10;99.90;;;;;;5049190;28;20040;-75
2021/01/03 12:28:02;;;;;;;47.85;23.55;;;3.10;99.90;;;;;;5046676;28;20032;-73
2021/01/03 12:30:28;;;;;;;55.17;27.40;;;3.00;99.90;;;;;;5050391;28;20534;-74
2021/01/03 12:32:53;;;;;;;87.50;40.90;;;3.00;99.90;;;;;;5046330;28;20044;-74
2021/01/03 12:35:19;;;;;;;103.60;47.97;;;3.00;99.90;;;;;;5049826;28;20021;-73
2021/01/03 12:37:45;;;;;;;78.82;35.60;;;2.90;99.90;;;;;;5050615;28;20470;-73
2021/01/03 12:40:12;;;;;;;82.88;36.25;;;2.90;99.90;;;;;;5050091;28;20090;-73
2021/01/03 12:42:38;;;;;;;53.80;25.27;;;2.80;99.90;;;;;;5049075;28;20021;-73
2021/01/03 12:45:08;;;;;;;58.28;27.92;;;2.80;99.90;;;;;;5049725;28;20021;-74
2021/01/03 12:47:33;;;;;;;59.53;29.23;;;2.70;99.90;;;;;;5045786;28;20017;-73
2021/01/03 12:49:59;;;;;;;60.53;28.60;;;2.70;99.90;;;;;;5048252;28;20044;-73
2021/01/03 12:52:25;;;;;;;56.20;26.10;;;2.80;99.90;;;;;;5047912;28;20039;-73
2021/01/03 12:54:52;;;;;;;51.92;24.13;;;2.80;99.90;;;;;;5048016;28;20041;-73
2021/01/03 12:57:17;;;;;;;47.15;25.92;;;2.80;99.90;;;;;;5047224;28;20039;-73
2021/01/03 12:59:43;;;;;;;147.73;61.55;;;2.70;99.90;;;;;;5048804;28;20028;-75